createdAt,value
2018-09-09T00:01:50.714Z,17.70
2018-09-09T00:04:19.134Z,17.71
2018-09-09T00:06:47.430Z,17.56
2018-09-09T00:09:20.483Z,17.61
2018-09-09T00:11:48.020Z,17.60
2018-09-09T00:14:15.307Z,17.64
2018-09-09T00:16:42.850Z,17.60
2018-09-09T00:19:10.113Z,17.76
2018-09-09T00:21:37.595Z,17.80
2018-09-09T00:24:05.229Z,17.82
2018-09-09T00:26:32.662Z,17.79
2018-09-09T00:28:59.975Z,17.77
2018-09-09T00:31:27.282Z,17.84
2018-09-09T00:33:54.662Z,17.81
2018-09-09T00:36:22.098Z,17.81
2018-09-09T00:38:49.445Z,17.67
2018-09-09T00:41:16.887Z,17.84
2018-09-09T00:43:44.185Z,17.81
2018-09-09T00:46:11.449Z,17.73
2018-09-09T00:48:38.750Z,17.82
2018-09-09T00:51:11.648Z,17.83
2018-09-09T00:53:42.630Z,17.72
2018-09-09T00:56:09.947Z,17.79
2018-09-09T00:58:38.175Z,17.76
2018-09-09T01:01:21.361Z,17.77
2018-09-09T01:03:48.712Z,17.74
2018-09-09T01:06:16.024Z,17.73
2018-09-09T01:08:43.267Z,17.79
2018-09-09T01:11:10.738Z,17.80
2018-09-09T01:13:38.142Z,17.78
2018-09-09T01:16:05.790Z,17.82
2018-09-09T01:18:33.165Z,17.79
2018-09-09T01:21:00.629Z,17.77
2018-09-09T01:23:27.893Z,17.68
2018-09-09T01:25:55.263Z,17.71
2018-09-09T01:28:22.547Z,17.69
2018-09-09T01:30:49.964Z,17.68
2018-09-09T01:33:17.580Z,17.68
2018-09-09T01:35:45.192Z,17.59
2018-09-09T01:38:12.469Z,17.72
2018-09-09T01:40:40.061Z,17.68
2018-09-09T01:43:07.424Z,17.90
2018-09-09T01:45:34.786Z,17.87
2018-09-09T01:48:02.377Z,17.84
2018-09-09T01:50:29.726Z,17.65
2018-09-09T01:52:57.015Z,17.77
2018-09-09T01:55:24.227Z,17.78
2018-09-09T01:57:52.256Z,17.76
2018-09-09T02:00:19.627Z,17.84
2018-09-09T02:02:47.162Z,17.94
2018-09-09T02:05:14.468Z,17.78
2018-09-09T02:07:41.833Z,17.71
2018-09-09T02:10:09.103Z,17.83
2018-09-09T02:12:36.429Z,17.91
2018-09-09T02:15:03.832Z,17.80
2018-09-09T02:17:31.219Z,18.00
2018-09-09T02:19:58.561Z,17.76
2018-09-09T02:22:25.881Z,17.89
2018-09-09T02:24:53.183Z,17.78
2018-09-09T02:27:20.429Z,17.79
2018-09-09T02:29:47.644Z,17.85
2018-09-09T02:32:14.881Z,17.72
2018-09-09T02:34:42.278Z,17.91
2018-09-09T02:37:09.535Z,17.86
2018-09-09T02:39:36.860Z,17.90
2018-09-09T02:42:04.085Z,17.96
2018-09-09T02:44:31.403Z,17.86
2018-09-09T02:46:58.801Z,17.84
2018-09-09T02:49:26.157Z,17.94
2018-09-09T02:51:53.475Z,17.99
2018-09-09T02:54:20.742Z,17.84
2018-09-09T02:56:48.101Z,17.76
2018-09-09T02:59:15.332Z,17.92
2018-09-09T03:01:42.589Z,17.84
2018-09-09T03:04:09.879Z,17.81
2018-09-09T03:06:37.214Z,17.85
2018-09-09T03:09:04.889Z,17.94
2018-09-09T03:11:32.146Z,17.73
2018-09-09T03:13:59.410Z,17.74
2018-09-09T03:16:26.667Z,17.71
2018-09-09T03:18:54.005Z,17.82
2018-09-09T03:21:21.257Z,17.80
2018-09-09T03:23:48.533Z,17.66
2018-09-09T03:26:15.869Z,17.68
2018-09-09T03:28:43.244Z,17.83
2018-09-09T03:31:10.471Z,17.88
2018-09-09T03:33:37.770Z,17.86
2018-09-09T03:36:05.166Z,17.74
2018-09-09T03:38:32.540Z,17.90
2018-09-09T03:40:59.866Z,17.84
2018-09-09T03:43:27.043Z,17.79
2018-09-09T03:45:54.302Z,17.82
2018-09-09T03:48:21.528Z,17.69
2018-09-09T03:50:48.819Z,17.78
2018-09-09T03:53:16.090Z,17.90
2018-09-09T03:55:43.840Z,17.93
2018-09-09T03:58:11.282Z,17.75
2018-09-09T04:00:39.238Z,17.70
2018-09-09T04:03:07.178Z,17.67
2018-09-09T04:05:34.428Z,17.79
2018-09-09T04:08:01.670Z,17.61
2018-09-09T04:10:29.440Z,17.75
2018-09-09T04:12:56.745Z,17.80
2018-09-09T04:15:23.938Z,17.74
2018-09-09T04:17:51.313Z,17.76
2018-09-09T04:20:18.590Z,17.79
2018-09-09T04:22:45.839Z,17.76
2018-09-09T04:25:13.186Z,17.58
2018-09-09T04:27:40.430Z,17.65
2018-09-09T04:30:07.711Z,17.73
2018-09-09T04:32:34.982Z,17.68
2018-09-09T04:35:02.269Z,17.84
2018-09-09T04:37:29.517Z,17.78
2018-09-09T04:39:56.770Z,17.83
2018-09-09T04:42:24.064Z,17.82
2018-09-09T04:44:51.642Z,17.90
2018-09-09T04:47:18.930Z,17.74
2018-09-09T04:49:46.222Z,17.79
2018-09-09T04:52:13.501Z,17.82
2018-09-09T04:54:40.815Z,17.80
2018-09-09T04:57:08.088Z,17.97
2018-09-09T04:59:36.055Z,17.79
2018-09-09T05:02:03.303Z,17.57
2018-09-09T05:04:30.627Z,17.61
2018-09-09T05:06:57.911Z,17.72
2018-09-09T05:09:25.200Z,17.76
2018-09-09T05:11:52.793Z,17.64
2018-09-09T05:14:20.046Z,17.80
2018-09-09T05:16:47.341Z,17.83
2018-09-09T05:19:15.322Z,17.79
2018-09-09T05:21:42.657Z,17.99
2018-09-09T05:24:09.930Z,17.93
2018-09-09T05:26:37.785Z,17.93
2018-09-09T05:29:05.069Z,17.98
2018-09-09T05:31:32.389Z,17.86
2018-09-09T05:33:59.687Z,17.83
2018-09-09T05:36:27.088Z,18.07
2018-09-09T05:38:54.327Z,18.02
2018-09-09T05:41:21.708Z,18.14
2018-09-09T05:43:49.000Z,18.08
2018-09-09T05:46:16.354Z,18.03
2018-09-09T05:48:43.899Z,18.13
2018-09-09T05:51:11.257Z,18.05
2018-09-09T05:53:38.575Z,18.15
2018-09-09T05:56:06.051Z,18.04
2018-09-09T05:58:33.430Z,18.10
2018-09-09T06:01:00.781Z,18.11
2018-09-09T06:03:28.281Z,17.97
2018-09-09T06:05:55.571Z,18.18
2018-09-09T06:08:22.935Z,18.28
2018-09-09T06:10:53.745Z,18.24
2018-09-09T06:13:21.687Z,17.98
2018-09-09T06:15:49.053Z,18.22
2018-09-09T06:18:16.672Z,18.17
2018-09-09T06:20:44.466Z,18.35
2018-09-09T06:23:11.821Z,18.32
2018-09-09T06:25:39.146Z,18.27
2018-09-09T06:28:06.496Z,18.37
2018-09-09T06:30:33.753Z,18.48
2018-09-09T06:33:00.990Z,18.62
2018-09-09T06:35:28.540Z,18.56
2018-09-09T06:37:56.464Z,18.57
2018-09-09T06:40:23.910Z,18.51
2018-09-09T06:42:51.837Z,18.32
2018-09-09T06:45:19.148Z,18.46
2018-09-09T06:47:46.442Z,18.49
2018-09-09T06:50:14.343Z,18.64
2018-09-09T06:52:41.955Z,18.68
2018-09-09T06:55:11.667Z,18.79
2018-09-09T06:57:38.990Z,18.64
2018-09-09T07:00:06.285Z,18.82
2018-09-09T07:02:33.556Z,18.98
2018-09-09T07:05:00.840Z,19.01
2018-09-09T07:07:28.925Z,18.86
2018-09-09T07:09:56.279Z,18.83
2018-09-09T07:12:23.645Z,18.96
2018-09-09T07:14:51.118Z,19.01
2018-09-09T07:17:18.372Z,18.93
2018-09-09T07:19:45.724Z,19.15
2018-09-09T07:22:13.166Z,19.39
2018-09-09T07:24:40.578Z,19.24
2018-09-09T07:27:07.878Z,19.40
2018-09-09T07:29:35.272Z,19.39
2018-09-09T07:32:02.617Z,19.35
2018-09-09T07:34:29.887Z,19.48
2018-09-09T07:36:57.125Z,19.38
